sensor_id;sensor_type;location;lat;lon;timestamp;pressure;altitude;pressure_sealevel;temperature;humidity
52307;BME280;38249;48.920;12.882;2023-01-27T00:00:42;97089.38;;;1.56;55.31
52307;BME280;38249;48.920;12.882;2023-01-27T00:03:09;97096.06;;;1.64;55.56
52307;BME280;38249;48.920;12.882;2023-01-27T00:05:38;97100.84;;;1.62;55.31
52307;BME280;38249;48.920;12.882;2023-01-27T00:08:05;97098.06;;;1.46;55.76
52307;BME280;38249;48.920;12.882;2023-01-27T00:10:31;97093.06;;;1.50;55.54
52307;BME280;38249;48.920;12.882;2023-01-27T00:12:58;97097.34;;;1.56;55.14
52307;BME280;38249;48.920;12.882;2023-01-27T00:15:41;97084.63;;;1.58;54.98
52307;BME280;38249;48.920;12.882;2023-01-27T00:18:08;97094.44;;;1.57;55.15
52307;BME280;38249;48.920;12.882;2023-01-27T00:20:35;97090.47;;;1.60;55.52
52307;BME280;38249;48.920;12.882;2023-01-27T00:23:21;97090.03;;;1.73;55.05
52307;BME280;38249;48.920;12.882;2023-01-27T00:26:07;97095.63;;;1.77;55.30
52307;BME280;38249;48.920;12.882;2023-01-27T00:28:36;97091.63;;;1.74;55.87
52307;BME280;38249;48.920;12.882;2023-01-27T00:31:03;97090.03;;;1.73;55.33
52307;BME280;38249;48.920;12.882;2023-01-27T00:33:30;97087.88;;;1.70;55.06
52307;BME280;38249;48.920;12.882;2023-01-27T00:36:00;97089.53;;;1.82;55.15
52307;BME280;38249;48.920;12.882;2023-01-27T00:38:30;97084.25;;;1.87;54.78
52307;BME280;38249;48.920;12.882;2023-01-27T00:40:57;97081.56;;;1.82;55.19
52307;BME280;38249;48.920;12.882;2023-01-27T00:43:45;97081.81;;;1.80;55.31
52307;BME280;38249;48.920;12.882;2023-01-27T00:46:11;97083.94;;;1.78;54.96
52307;BME280;38249;48.920;12.882;2023-01-27T00:48:38;97093.50;;;1.79;54.71
52307;BME280;38249;48.920;12.882;2023-01-27T00:51:04;97087.13;;;1.80;54.91
52307;BME280;38249;48.920;12.882;2023-01-27T00:53:32;97092.72;;;1.84;55.09
52307;BME280;38249;48.920;12.882;2023-01-27T00:55:59;97098.72;;;1.64;55.63
52307;BME280;38249;48.920;12.882;2023-01-27T00:58:25;97093.69;;;1.67;54.98
52307;BME280;38249;48.920;12.882;2023-01-27T01:00:52;97095.31;;;1.68;54.89
52307;BME280;38249;48.920;12.882;2023-01-27T01:03:19;97094.19;;;1.64;55.11
52307;BME280;38249;48.920;12.882;2023-01-27T01:05:46;97102.63;;;1.56;55.18
52307;BME280;38249;48.920;12.882;2023-01-27T01:08:13;97100.75;;;1.51;55.15
52307;BME280;38249;48.920;12.882;2023-01-27T01:10:40;97098.47;;;1.65;55.44
52307;BME280;38249;48.920;12.882;2023-01-27T01:13:07;97103.16;;;1.53;55.47
52307;BME280;38249;48.920;12.882;2023-01-27T01:15:36;97094.44;;;1.57;55.84
52307;BME280;38249;48.920;12.882;2023-01-27T01:18:04;97102.97;;;1.65;54.98
52307;BME280;38249;48.920;12.882;2023-01-27T01:20:35;97094.56;;;1.78;55.10
52307;BME280;38249;48.920;12.882;2023-01-27T01:23:02;97104.06;;;1.69;55.07
52307;BME280;38249;48.920;12.882;2023-01-27T01:25:28;97098.75;;;1.69;54.97
52307;BME280;38249;48.920;12.882;2023-01-27T01:27:56;97096.16;;;1.79;54.54
52307;BME280;38249;48.920;12.882;2023-01-27T01:30:23;97097.69;;;1.70;54.67
52307;BME280;38249;48.920;12.882;2023-01-27T01:32:50;97104.59;;;1.71;55.39
52307;BME280;38249;48.920;12.882;2023-01-27T01:35:17;97104.34;;;1.72;54.96
52307;BME280;38249;48.920;12.882;2023-01-27T01:37:43;97099.28;;;1.71;55.18
52307;BME280;38249;48.920;12.882;2023-01-27T01:40:11;97091.38;;;1.76;54.96
52307;BME280;38249;48.920;12.882;2023-01-27T01:42:58;97090.66;;;1.91;54.54
52307;BME280;38249;48.920;12.882;2023-01-27T01:45:45;97089.31;;;1.93;55.44
52307;BME280;38249;48.920;12.882;2023-01-27T01:48:15;97082.63;;;1.81;55.43
52307;BME280;38249;48.920;12.882;2023-01-27T01:50:46;97085.00;;;1.77;54.74
52307;BME280;38249;48.920;12.882;2023-01-27T01:53:15;97090.00;;;1.68;55.51
52307;BME280;38249;48.920;12.882;2023-01-27T01:55:42;97087.22;;;1.53;55.83
52307;BME280;38249;48.920;12.882;2023-01-27T01:58:11;97091.50;;;1.59;55.27
52307;BME280;38249;48.920;12.882;2023-01-27T02:00:38;97092.44;;;1.37;55.49
52307;BME280;38249;48.920;12.882;2023-01-27T02:03:05;97094.28;;;1.37;55.74
52307;BME280;38249;48.920;12.882;2023-01-27T02:05:33;97097.56;;;1.49;55.35
52307;BME280;38249;48.920;12.882;2023-01-27T02:08:05;97089.66;;;1.59;55.77
52307;BME280;38249;48.920;12.882;2023-01-27T02:10:33;97094.91;;;1.49;55.19
52307;BME280;38249;48.920;12.882;2023-01-27T02:13:00;97091.16;;;1.45;55.63
52307;BME280;38249;48.920;12.882;2023-01-27T02:15:29;97086.22;;;1.59;55.36
52307;BME280;38249;48.920;12.882;2023-01-27T02:17:56;97094.16;;;1.59;55.08
52307;BME280;38249;48.920;12.882;2023-01-27T02:20:27;97096.09;;;1.69;55.37
52307;BME280;38249;48.920;12.882;2023-01-27T02:23:01;97086.84;;;1.71;55.49
52307;BME280;38249;48.920;12.882;2023-01-27T02:25:39;97096.97;;;1.80;55.75
52307;BME280;38249;48.920;12.882;2023-01-27T02:28:07;97083.91;;;1.68;55.16
52307;BME280;38249;48.920;12.882;2023-01-27T02:30:34;97080.91;;;1.59;55.60
52307;BME280;38249;48.920;12.882;2023-01-27T02:33:00;97085.94;;;1.61;55.57
52307;BME280;38249;48.920;12.882;2023-01-27T02:35:31;97085.28;;;1.81;55.23
52307;BME280;38249;48.920;12.882;2023-01-27T02:38:00;97085.19;;;1.65;55.10
52307;BME280;38249;48.920;12.882;2023-01-27T02:40:28;97083.66;;;1.74;55.36
52307;BME280;38249;48.920;12.882;2023-01-27T02:42:57;97078.59;;;1.73;55.47
52307;BME280;38249;48.920;12.882;2023-01-27T02:45:23;97086.22;;;1.64;55.31
52307;BME280;38249;48.920;12.882;2023-01-27T02:47:50;97082.00;;;1.63;54.91
52307;BME280;38249;48.920;12.882;2023-01-27T02:50:17;97085.69;;;1.62;55.28
52307;BME280;38249;48.920;12.882;2023-01-27T02:52:43;97078.75;;;1.56;55.54
52307;BME280;38249;48.920;12.882;2023-01-27T02:55:10;97083.00;;;1.57;55.66
52307;BME280;38249;48.920;12.882;2023-01-27T02:57:36;97080.34;;;1.57;55.24
52307;BME280;38249;48.920;12.882;2023-01-27T03:00:05;97082.81;;;1.69;54.93
52307;BME280;38249;48.920;12.882;2023-01-27T03:02:33;97079.25;;;1.53;55.59
52307;BME280;38249;48.920;12.882;2023-01-27T03:05:00;97073.94;;;1.53;55.13
52307;BME280;38249;48.920;12.882;2023-01-27T03:07:26;97079.00;;;1.54;55.39
52307;BME280;38249;48.920;12.882;2023-01-27T03:09:53;97065.97;;;1.53;55.25
52307;BME280;38249;48.920;12.882;2023-01-27T03:12:19;97068.03;;;1.40;55.75
52307;BME280;38249;48.920;12.882;2023-01-27T03:14:46;97064.00;;;1.33;55.84
52307;BME280;38249;48.920;12.882;2023-01-27T03:17:32;97063.00;;;1.39;56.02
52307;BME280;38249;48.920;12.882;2023-01-27T03:20:16;97066.38;;;1.29;55.92
52307;BME280;38249;48.920;12.882;2023-01-27T03:22:43;97063.19;;;1.32;55.45
52307;BME280;38249;48.920;12.882;2023-01-27T03:25:10;97065.63;;;1.39;55.62
52307;BME280;38249;48.920;12.882;2023-01-27T03:27:36;97053.41;;;1.38;55.78
52307;BME280;38249;48.920;12.882;2023-01-27T03:30:04;97060.94;;;1.51;55.79
52307;BME280;38249;48.920;12.882;2023-01-27T03:32:32;97062.56;;;1.57;55.52
52307;BME280;38249;48.920;12.882;2023-01-27T03:34:59;97064.13;;;1.48;55.59
52307;BME280;38249;48.920;12.882;2023-01-27T03:37:27;97059.38;;;1.55;55.61
52307;BME280;38249;48.920;12.882;2023-01-27T03:40:12;97054.03;;;1.50;55.65
52307;BME280;38249;48.920;12.882;2023-01-27T03:42:57;97058.47;;;1.39;55.86
52307;BME280;38249;48.920;12.882;2023-01-27T03:45:46;97055.94;;;1.55;55.73
52307;BME280;38249;48.920;12.882;2023-01-27T03:48:32;97060.69;;;1.53;55.18
52307;BME280;38249;48.920;12.882;2023-01-27T03:50:59;97063.56;;;1.46;55.77
52307;BME280;38249;48.920;12.882;2023-01-27T03:53:26;97067.03;;;1.47;55.61
52307;BME280;38249;48.920;12.882;2023-01-27T03:55:53;97060.63;;;1.43;55.20
52307;BME280;38249;48.920;12.882;2023-01-27T03:58:21;97066.53;;;1.50;55.47
52307;BME280;38249;48.920;12.882;2023-01-27T04:00:50;97066.25;;;1.51;55.27
52307;BME280;38249;48.920;12.882;2023-01-27T04:03:18;97066.69;;;1.38;55.95
52307;BME280;38249;48.920;12.882;2023-01-27T04:06:06;97059.53;;;1.38;56.19
52307;BME280;38249;48.920;12.882;2023-01-27T04:08:50;97056.97;;;1.16;56.45
52307;BME280;38249;48.920;12.882;2023-01-27T04:11:16;97061.50;;;1.16;56.07
52307;BME280;38249;48.920;12.882;2023-01-27T04:14:02;97067.13;;;1.25;56.37
52307;BME280;38249;48.920;12.882;2023-01-27T04:16:29;97078.75;;;1.18;56.03
52307;BME280;38249;48.920;12.882;2023-01-27T04:18:57;97082.50;;;1.22;56.47
52307;BME280;38249;48.920;12.882;2023-01-27T04:21:25;97079.41;;;1.36;55.94
52307;BME280;38249;48.920;12.882;2023-01-27T04:23:51;97074.56;;;1.28;56.26
52307;BME280;38249;48.920;12.882;2023-01-27T04:26:19;97082.31;;;1.34;55.89
52307;BME280;38249;48.920;12.882;2023-01-27T04:28:45;97077.00;;;1.34;56.34
52307;BME280;38249;48.920;12.882;2023-01-27T04:31:12;97084.47;;;1.37;55.99
52307;BME280;38249;48.920;12.882;2023-01-27T04:33:39;97078.16;;;1.44;56.37
52307;BME280;38249;48.920;12.882;2023-01-27T04:36:06;97080.88;;;1.54;55.60
52307;BME280;38249;48.920;12.882;2023-01-27T04:38:34;97078.28;;;1.64;55.90
52307;BME280;38249;48.920;12.882;2023-01-27T04:41:01;97086.19;;;1.54;55.85
52307;BME280;38249;48.920;12.882;2023-01-27T04:43:27;97082.75;;;1.58;55.37
52307;BME280;38249;48.920;12.882;2023-01-27T04:45:53;97081.44;;;1.61;56.13
52307;BME280;38249;48.920;12.882;2023-01-27T04:48:20;97077.47;;;1.64;55.64
52307;BME280;38249;48.920;12.882;2023-01-27T04:50:47;97081.44;;;1.61;55.96
52307;BME280;38249;48.920;12.882;2023-01-27T04:53:13;97088.63;;;1.66;55.22
52307;BME280;38249;48.920;12.882;2023-01-27T04:55:44;97090.06;;;1.84;55.51
52307;BME280;38249;48.920;12.882;2023-01-27T04:58:12;97092.13;;;1.66;55.35
52307;BME280;38249;48.920;12.882;2023-01-27T05:00:39;97092.13;;;1.66;55.84
52307;BME280;38249;48.920;12.882;2023-01-27T05:03:05;97091.28;;;1.66;55.07
52307;BME280;38249;48.920;12.882;2023-01-27T05:05:34;97090.75;;;1.64;55.39
52307;BME280;38249;48.920;12.882;2023-01-27T05:08:02;97095.84;;;1.70;55.26
52307;BME280;38249;48.920;12.882;2023-01-27T05:10:28;97090.69;;;1.53;55.58
52307;BME280;38249;48.920;12.882;2023-01-27T05:12:56;97092.63;;;1.63;55.80
52307;BME280;38249;48.920;12.882;2023-01-27T05:15:23;97087.94;;;1.43;55.72
52307;BME280;38249;48.920;12.882;2023-01-27T05:17:50;97084.50;;;1.43;55.54
52307;BME280;38249;48.920;12.882;2023-01-27T05:20:16;97085.88;;;1.45;55.75
52307;BME280;38249;48.920;12.882;2023-01-27T05:22:43;97081.06;;;1.42;55.80
52307;BME280;38249;48.920;12.882;2023-01-27T05:25:09;97085.53;;;1.41;55.57
52307;BME280;38249;48.920;12.882;2023-01-27T05:27:36;97091.13;;;1.40;55.59
52307;BME280;38249;48.920;12.882;2023-01-27T05:30:05;97088.03;;;1.53;55.82
52307;BME280;38249;48.920;12.882;2023-01-27T05:32:32;97096.47;;;1.45;55.52
52307;BME280;38249;48.920;12.882;2023-01-27T05:34:58;97098.38;;;1.50;55.56
52307;BME280;38249;48.920;12.882;2023-01-27T05:37:25;97098.44;;;1.60;55.54
52307;BME280;38249;48.920;12.882;2023-01-27T05:39:52;97101.09;;;1.60;55.63
52307;BME280;38249;48.920;12.882;2023-01-27T05:42:19;97107.19;;;1.61;55.52
52307;BME280;38249;48.920;12.882;2023-01-27T05:44:46;97110.09;;;1.59;55.61
52307;BME280;38249;48.920;12.882;2023-01-27T05:47:13;97119.19;;;1.68;56.23
52307;BME280;38249;48.920;12.882;2023-01-27T05:49:40;97114.63;;;1.58;55.91
52307;BME280;38249;48.920;12.882;2023-01-27T05:52:06;97120.72;;;1.59;55.45
52307;BME280;38249;48.920;12.882;2023-01-27T05:54:33;97128.19;;;1.62;55.64
52307;BME280;38249;48.920;12.882;2023-01-27T05:56:59;97122.88;;;1.62;55.46
52307;BME280;38249;48.920;12.882;2023-01-27T05:59:26;97121.00;;;1.63;55.64
52307;BME280;38249;48.920;12.882;2023-01-27T06:01:52;97117.56;;;1.62;55.95
52307;BME280;38249;48.920;12.882;2023-01-27T06:04:20;97113.69;;;1.80;55.64
52307;BME280;38249;48.920;12.882;2023-01-27T06:06:47;97114.97;;;1.72;55.09
52307;BME280;38249;48.920;12.882;2023-01-27T06:09:13;97118.19;;;1.74;55.49
52307;BME280;38249;48.920;12.882;2023-01-27T06:11:39;97128.31;;;1.77;55.77
52307;BME280;38249;48.920;12.882;2023-01-27T06:14:06;97132.03;;;1.82;55.07
52307;BME280;38249;48.920;12.882;2023-01-27T06:16:33;97134.19;;;1.85;55.46
52307;BME280;38249;48.920;12.882;2023-01-27T06:18:59;97132.03;;;1.82;55.16
52307;BME280;38249;48.920;12.882;2023-01-27T06:21:27;97139.53;;;1.90;55.13
52307;BME280;38249;48.920;12.882;2023-01-27T06:23:53;97135.41;;;1.72;55.65
52307;BME280;38249;48.920;12.882;2023-01-27T06:26:22;97139.69;;;1.73;55.18
52307;BME280;38249;48.920;12.882;2023-01-27T06:28:49;97142.03;;;1.69;55.32
52307;BME280;38249;48.920;12.882;2023-01-27T06:31:17;97137.34;;;1.82;55.35
52307;BME280;38249;48.920;12.882;2023-01-27T06:33:44;97143.91;;;1.74;55.45
52307;BME280;38249;48.920;12.882;2023-01-27T06:36:12;97134.47;;;1.88;55.66
52307;BME280;38249;48.920;12.882;2023-01-27T06:38:40;97130.00;;;1.94;55.22
52307;BME280;38249;48.920;12.882;2023-01-27T06:41:07;97134.72;;;1.87;55.66
52307;BME280;38249;48.920;12.882;2023-01-27T06:43:34;97132.56;;;1.84;55.18
52307;BME280;38249;48.920;12.882;2023-01-27T06:46:00;97132.28;;;1.80;55.18
52307;BME280;38249;48.920;12.882;2023-01-27T06:48:27;97140.75;;;1.77;55.22
52307;BME280;38249;48.920;12.882;2023-01-27T06:50:55;97141.56;;;1.77;55.43
52307;BME280;38249;48.920;12.882;2023-01-27T06:53:22;97140.47;;;1.73;55.47
52307;BME280;38249;48.920;12.882;2023-01-27T06:55:55;97137.38;;;1.87;55.14
52307;BME280;38249;48.920;12.882;2023-01-27T06:58:22;97137.25;;;1.66;55.33
52307;BME280;38249;48.920;12.882;2023-01-27T07:00:49;97135.13;;;1.68;55.02
52307;BME280;38249;48.920;12.882;2023-01-27T07:03:16;97126.88;;;1.65;56.00
52307;BME280;38249;48.920;12.882;2023-01-27T07:05:42;97128.75;;;1.69;55.96
52307;BME280;38249;48.920;12.882;2023-01-27T07:08:09;97135.63;;;1.65;56.01
52307;BME280;38249;48.920;12.882;2023-01-27T07:10:36;97132.97;;;1.65;55.61
52307;BME280;38249;48.920;12.882;2023-01-27T07:13:05;97137.59;;;1.80;55.35
52307;BME280;38249;48.920;12.882;2023-01-27T07:15:32;97143.38;;;1.72;55.81
52307;BME280;38249;48.920;12.882;2023-01-27T07:17:59;97135.16;;;1.73;55.30
52307;BME280;38249;48.920;12.882;2023-01-27T07:20:26;97137.56;;;1.75;55.46
52307;BME280;38249;48.920;12.882;2023-01-27T07:22:54;97139.97;;;1.76;55.26
52307;BME280;38249;48.920;12.882;2023-01-27T07:25:21;97146.06;;;1.77;54.92
52307;BME280;38249;48.920;12.882;2023-01-27T07:27:48;97133.38;;;1.84;54.93
52307;BME280;38249;48.920;12.882;2023-01-27T07:30:16;97147.28;;;2.02;55.05
52307;BME280;38249;48.920;12.882;2023-01-27T07:32:43;97151.50;;;1.92;55.41
52307;BME280;38249;48.920;12.882;2023-01-27T07:35:09;97149.91;;;1.96;55.37
52307;BME280;38249;48.920;12.882;2023-01-27T07:37:36;97156.34;;;2.01;55.65
52307;BME280;38249;48.920;12.882;2023-01-27T07:40:03;97146.78;;;2.05;54.71
52307;BME280;38249;48.920;12.882;2023-01-27T07:42:30;97161.94;;;2.04;54.61
52307;BME280;38249;48.920;12.882;2023-01-27T07:44:56;97164.06;;;2.07;54.71
52307;BME280;38249;48.920;12.882;2023-01-27T07:47:24;97164.66;;;2.20;55.05
52307;BME280;38249;48.920;12.882;2023-01-27T07:49:51;97163.22;;;2.02;54.74
52307;BME280;38249;48.920;12.882;2023-01-27T07:52:17;97156.56;;;1.94;55.13
52307;BME280;38249;48.920;12.882;2023-01-27T07:54:44;97156.31;;;1.95;55.10
52307;BME280;38249;48.920;12.882;2023-01-27T07:57:10;97149.66;;;1.98;55.02
52307;BME280;38249;48.920;12.882;2023-01-27T07:59:37;97148.91;;;2.03;55.21
52307;BME280;38249;48.920;12.882;2023-01-27T08:02:03;97156.63;;;2.04;54.95
52307;BME280;38249;48.920;12.882;2023-01-27T08:04:31;97156.19;;;2.23;54.55
52307;BME280;38249;48.920;12.882;2023-01-27T08:06:58;97166.25;;;2.16;54.51
52307;BME280;38249;48.920;12.882;2023-01-27T08:09:26;97156.94;;;2.18;54.80
52307;BME280;38249;48.920;12.882;2023-01-27T08:11:52;97164.66;;;2.20;54.62
52307;BME280;38249;48.920;12.882;2023-01-27T08:14:19;97172.31;;;2.06;54.29
52307;BME280;38249;48.920;12.882;2023-01-27T08:16:45;97166.69;;;1.97;55.47
52307;BME280;38249;48.920;12.882;2023-01-27T08:19:12;97174.06;;;1.95;54.79
52307;BME280;38249;48.920;12.882;2023-01-27T08:21:40;97178.94;;;2.08;55.25
52307;BME280;38249;48.920;12.882;2023-01-27T08:24:06;97174.09;;;2.00;54.70
52307;BME280;38249;48.920;12.882;2023-01-27T08:26:34;97167.13;;;1.89;54.64
52307;BME280;38249;48.920;12.882;2023-01-27T08:29:01;97177.22;;;1.87;55.26
52307;BME280;38249;48.920;12.882;2023-01-27T08:31:27;97178.03;;;1.87;54.59
52307;BME280;38249;48.920;12.882;2023-01-27T08:33:54;97186.81;;;1.93;55.54
52307;BME280;38249;48.920;12.882;2023-01-27T08:36:21;97188.28;;;2.11;54.74
52307;BME280;38249;48.920;12.882;2023-01-27T08:38:50;97195.00;;;2.24;54.74
52307;BME280;38249;48.920;12.882;2023-01-27T08:41:18;97187.59;;;2.31;54.33
52307;BME280;38249;48.920;12.882;2023-01-27T08:43:45;97197.41;;;2.30;54.95
52307;BME280;38249;48.920;12.882;2023-01-27T08:46:12;97193.47;;;2.33;54.81
52307;BME280;38249;48.920;12.882;2023-01-27T08:48:40;97195.41;;;2.48;54.74
52307;BME280;38249;48.920;12.882;2023-01-27T08:51:07;97195.19;;;2.65;54.43
52307;BME280;38249;48.920;12.882;2023-01-27T08:53:34;97208.53;;;2.75;53.78
52307;BME280;38249;48.920;12.882;2023-01-27T08:56:05;97203.81;;;2.93;53.71
52307;BME280;38249;48.920;12.882;2023-01-27T08:58:33;97202.19;;;2.86;53.46
52307;BME280;38249;48.920;12.882;2023-01-27T09:00:59;97206.19;;;2.84;52.91
52307;BME280;38249;48.920;12.882;2023-01-27T09:03:27;97199.28;;;2.88;53.54
52307;BME280;38249;48.920;12.882;2023-01-27T09:05:54;97203.81;;;2.87;52.92
52307;BME280;38249;48.920;12.882;2023-01-27T09:08:21;97208.88;;;2.89;52.96
52307;BME280;38249;48.920;12.882;2023-01-27T09:10:47;97196.34;;;2.90;53.12
52307;BME280;38249;48.920;12.882;2023-01-27T09:13:15;97203.66;;;3.10;52.53
52307;BME280;38249;48.920;12.882;2023-01-27T09:15:42;97202.28;;;3.02;52.47
52307;BME280;38249;48.920;12.882;2023-01-27T09:18:10;97207.00;;;2.90;52.37
52307;BME280;38249;48.920;12.882;2023-01-27T09:20:38;97206.41;;;2.72;52.41
52307;BME280;38249;48.920;12.882;2023-01-27T09:23:05;97202.38;;;2.64;53.00
52307;BME280;38249;48.920;12.882;2023-01-27T09:25:31;97207.97;;;2.63;53.22
52307;BME280;38249;48.920;12.882;2023-01-27T09:27:58;97209.03;;;2.67;53.02
52307;BME280;38249;48.920;12.882;2023-01-27T09:30:27;97211.16;;;2.70;52.61
52307;BME280;38249;48.920;12.882;2023-01-27T09:32:57;97213.56;;;2.72;52.54
52307;BME280;38249;48.920;12.882;2023-01-27T09:35:25;97210.59;;;2.58;52.98
52307;BME280;38249;48.920;12.882;2023-01-27T09:37:54;97212.50;;;2.62;52.36
52307;BME280;38249;48.920;12.882;2023-01-27T09:40:29;97217.88;;;2.78;52.82
52307;BME280;38249;48.920;12.882;2023-01-27T09:43:24;97219.50;;;2.89;52.01
52307;BME280;38249;48.920;12.882;2023-01-27T09:46:17;97217.09;;;2.87;52.20
52307;BME280;38249;48.920;12.882;2023-01-27T09:49:04;97215.47;;;2.81;52.68
52307;BME280;38249;48.920;12.882;2023-01-27T09:51:43;97220.00;;;2.81;52.18
52307;BME280;38249;48.920;12.882;2023-01-27T09:54:25;97217.09;;;2.82;52.52
52307;BME280;38249;48.920;12.882;2023-01-27T09:57:05;97215.47;;;2.81;52.45
52307;BME280;38249;48.920;12.882;2023-01-27T09:59:46;97217.63;;;2.84;52.14
52307;BME280;38249;48.920;12.882;2023-01-27T10:02:29;97219.47;;;2.79;52.19
52307;BME280;38249;48.920;12.882;2023-01-27T10:05:34;97215.28;;;2.93;52.40
52307;BME280;38249;48.920;12.882;2023-01-27T10:11:04;97211.84;;;2.98;51.96
52307;BME280;38249;48.920;12.882;2023-01-27T10:13:46;97207.34;;;3.09;52.27
52307;BME280;38249;48.920;12.882;2023-01-27T10:16:33;97208.41;;;3.13;51.48
52307;BME280;38249;48.920;12.882;2023-01-27T10:19:24;97203.13;;;3.18;51.72
52307;BME280;38249;48.920;12.882;2023-01-27T10:22:00;97206.84;;;3.22;51.98
52307;BME280;38249;48.920;12.882;2023-01-27T10:24:39;97204.19;;;3.27;51.82
52307;BME280;38249;48.920;12.882;2023-01-27T10:27:15;97206.34;;;3.30;51.58
52307;BME280;38249;48.920;12.882;2023-01-27T10:29:44;97203.41;;;3.21;51.74
52307;BME280;38249;48.920;12.882;2023-01-27T10:32:20;97208.75;;;3.32;50.87
52307;BME280;38249;48.920;12.882;2023-01-27T10:34:58;97209.53;;;3.32;50.75
52307;BME280;38249;48.920;12.882;2023-01-27T10:37:35;97212.19;;;3.32;51.32
52307;BME280;38249;48.920;12.882;2023-01-27T10:40:10;97215.94;;;3.41;50.84
52307;BME280;38249;48.920;12.882;2023-01-27T10:42:44;97207.44;;;3.34;50.39
52307;BME280;38249;48.920;12.882;2023-01-27T10:45:21;97208.22;;;3.24;50.55
52307;BME280;38249;48.920;12.882;2023-01-27T10:48:11;97224.72;;;3.37;49.58
52307;BME280;38249;48.920;12.882;2023-01-27T10:50:43;97223.13;;;3.31;50.58
52307;BME280;38249;48.920;12.882;2023-01-27T10:53:15;97227.09;;;3.28;50.43
52307;BME280;38249;48.920;12.882;2023-01-27T10:55:51;97219.09;;;3.18;50.84
52307;BME280;38249;48.920;12.882;2023-01-27T10:58:35;97213.22;;;3.16;51.58
52307;BME280;38249;48.920;12.882;2023-01-27T11:01:06;97214.25;;;2.99;51.21
52307;BME280;38249;48.920;12.882;2023-01-27T11:03:36;97220.41;;;3.05;52.05
52307;BME280;38249;48.920;12.882;2023-01-27T11:06:11;97223.84;;;3.11;51.51
52307;BME280;38249;48.920;12.882;2023-01-27T11:08:39;97220.16;;;3.27;51.29
52307;BME280;38249;48.920;12.882;2023-01-27T11:11:08;97219.25;;;2.91;52.15
52307;BME280;38249;48.920;12.882;2023-01-27T11:13:58;97206.84;;;3.07;52.09
52307;BME280;38249;48.920;12.882;2023-01-27T11:16:31;97211.38;;;3.21;51.85
52307;BME280;38249;48.920;12.882;2023-01-27T11:19:12;97218.34;;;3.38;52.32
52307;BME280;38249;48.920;12.882;2023-01-27T11:21:41;97209.03;;;3.40;51.98
52307;BME280;38249;48.920;12.882;2023-01-27T11:24:15;97205.84;;;3.49;51.61
52307;BME280;38249;48.920;12.882;2023-01-27T11:26:47;97198.91;;;3.58;51.39
52307;BME280;38249;48.920;12.882;2023-01-27T11:29:22;97193.06;;;3.66;51.40
52307;BME280;38249;48.920;12.882;2023-01-27T11:31:56;97199.75;;;3.69;52.17
52307;BME280;38249;48.920;12.882;2023-01-27T11:34:31;97194.66;;;3.72;52.03
52307;BME280;38249;48.920;12.882;2023-01-27T11:37:11;97194.66;;;3.72;51.69
52307;BME280;38249;48.920;12.882;2023-01-27T11:39:41;97187.22;;;3.54;51.59
52307;BME280;38249;48.920;12.882;2023-01-27T11:42:08;97184.81;;;3.73;51.59
52307;BME280;38249;48.920;12.882;2023-01-27T11:44:36;97188.53;;;3.77;50.90
52307;BME280;38249;48.920;12.882;2023-01-27T11:47:06;97182.66;;;3.95;51.06
52307;BME280;38249;48.920;12.882;2023-01-27T11:49:37;97183.19;;;4.08;50.32
52307;BME280;38249;48.920;12.882;2023-01-27T11:52:12;97180.50;;;4.18;49.91
52307;BME280;38249;48.920;12.882;2023-01-27T11:54:43;97184.50;;;4.21;49.16
52307;BME280;38249;48.920;12.882;2023-01-27T11:57:17;97183.97;;;4.29;48.81
52307;BME280;38249;48.920;12.882;2023-01-27T11:59:45;97175.69;;;4.20;48.90
52307;BME280;38249;48.920;12.882;2023-01-27T12:02:21;97179.69;;;4.28;49.00
52307;BME280;38249;48.920;12.882;2023-01-27T12:04:51;97176.50;;;4.21;49.22
52307;BME280;38249;48.920;12.882;2023-01-27T12:07:32;97179.16;;;4.31;48.55
52307;BME280;38249;48.920;12.882;2023-01-27T12:10:00;97167.72;;;4.15;48.20
52307;BME280;38249;48.920;12.882;2023-01-27T12:12:27;97171.19;;;4.21;48.03
52307;BME280;38249;48.920;12.882;2023-01-27T12:14:56;97168.25;;;4.22;48.04
52307;BME280;38249;48.920;12.882;2023-01-27T12:17:28;97166.38;;;4.23;48.08
52307;BME280;38249;48.920;12.882;2023-01-27T12:19:59;97168.50;;;4.21;47.43
52307;BME280;38249;48.920;12.882;2023-01-27T12:22:31;97170.66;;;4.24;47.14
52307;BME280;38249;48.920;12.882;2023-01-27T12:25:00;97164.22;;;4.25;47.16
52307;BME280;38249;48.920;12.882;2023-01-27T12:27:30;97162.38;;;4.25;47.57
52307;BME280;38249;48.920;12.882;2023-01-27T12:30:05;97166.59;;;4.31;47.56
52307;BME280;38249;48.920;12.882;2023-01-27T12:32:40;97167.69;;;4.30;47.49
52307;BME280;38249;48.920;12.882;2023-01-27T12:35:18;97164.47;;;4.39;46.65
52307;BME280;38249;48.920;12.882;2023-01-27T12:37:48;97163.41;;;4.29;46.86
52307;BME280;38249;48.920;12.882;2023-01-27T12:40:22;97154.59;;;4.34;47.10
52307;BME280;38249;48.920;12.882;2023-01-27T12:43:04;97150.06;;;4.45;46.35
52307;BME280;38249;48.920;12.882;2023-01-27T12:45:32;97152.47;;;4.36;46.85
52307;BME280;38249;48.920;12.882;2023-01-27T12:48:13;97146.03;;;4.42;46.92
52307;BME280;38249;48.920;12.882;2023-01-27T12:50:42;97145.28;;;4.37;46.20
52307;BME280;38249;48.920;12.882;2023-01-27T12:53:20;97149.78;;;4.41;47.09
52307;BME280;38249;48.920;12.882;2023-01-27T12:55:50;97138.28;;;4.51;46.42
52307;BME280;38249;48.920;12.882;2023-01-27T12:58:29;97134.25;;;4.59;45.38
52307;BME280;38249;48.920;12.882;2023-01-27T13:00:58;97143.09;;;4.49;45.58
52307;BME280;38249;48.920;12.882;2023-01-27T13:03:26;97136.16;;;4.53;46.07
52307;BME280;38249;48.920;12.882;2023-01-27T13:05:55;97143.09;;;4.49;46.01
52307;BME280;38249;48.920;12.882;2023-01-27T13:08:25;97140.41;;;4.49;46.12
52307;BME280;38249;48.920;12.882;2023-01-27T13:10:55;97141.00;;;4.36;46.30
52307;BME280;38249;48.920;12.882;2023-01-27T13:13:24;97135.69;;;4.30;45.98
52307;BME280;38249;48.920;12.882;2023-01-27T13:15:53;97131.69;;;4.28;45.65
52307;BME280;38249;48.920;12.882;2023-01-27T13:18:21;97139.72;;;4.18;46.49